Time;durP1;ratioP1;P1;durP2;ratioP2;P2;SDS_P1;SDS_P2;PMS_P1;PMS_P2;Temp;Humidity;BMP_temperature;BMP_pressure;BME280_temperature;BME280_humidity;BME280_pressure;Samples;Min_cycle;Max_cycle;Signal;HPM_P1;HPM_P2
2022/03/15 00:00:51;;;;;;;17.90;5.20;;;;;;;4.22;69.49;97668.66;2068222;28;20707;-65
2022/03/15 00:01:53;;;;;;;15.35;5.55;;;;;;;4.23;69.82;97665.16;2067434;28;20199;-64
2022/03/15 00:02:56;;;;;;;14.68;5.53;;;;;;;4.31;69.68;97671.00;2069751;28;20563;-65
2022/03/15 00:13:02;;;;;;;13.10;4.47;;;;;;;4.39;68.96;97663.00;2068710;28;20202;-65
2022/03/15 00:14:04;;;;;;;9.02;4.60;;;;;;;4.41;69.18;97662.09;2074308;28;20727;-64
2022/03/15 00:15:08;;;;;;;12.55;5.80;;;;;;;4.33;69.43;97667.50;2074700;28;20212;-64
2022/03/15 00:16:10;;;;;;;15.57;4.75;;;;;;;4.45;69.06;97663.72;2069860;28;20758;-65
2022/03/15 00:17:13;;;;;;;12.68;5.00;;;;;;;4.50;68.70;97659.22;2068699;28;20198;-64
2022/03/15 00:18:46;;;;;;;15.95;5.95;;;;;;;4.48;68.92;97661.03;2068445;28;20328;-65
2022/03/15 00:24:43;;;;;;;14.82;5.45;;;;;;;4.48;69.38;97657.59;2066126;28;20253;-64
2022/03/15 00:25:46;;;;;;;9.32;4.43;;;;;;;4.45;69.71;97657.66;2069836;28;20355;-65
2022/03/15 00:27:06;;;;;;;17.63;5.13;;;;;;;4.29;69.50;97654.63;2070403;28;20695;-65
2022/03/15 00:28:08;;;;;;;9.75;4.28;;;;;;;4.21;69.48;97660.00;2066616;28;20243;-64
2022/03/15 00:29:10;;;;;;;10.43;4.60;;;;;;;4.13;69.57;97652.44;2052683;28;20659;-64
2022/03/15 00:30:14;;;;;;;10.23;4.57;;;;;;;4.11;70.21;97658.56;2052436;28;20602;-64
2022/03/15 00:31:16;;;;;;;16.85;4.10;;;;;;;4.02;70.57;97664.84;2060058;28;20203;-65
2022/03/15 00:32:19;;;;;;;11.02;4.88;;;;;;;4.01;70.52;97667.47;2068200;28;20190;-64
2022/03/15 00:33:21;;;;;;;12.23;4.70;;;;;;;4.20;70.13;97662.69;2071896;28;20320;-64
2022/03/15 00:34:23;;;;;;;11.82;4.85;;;;;;;4.19;70.29;97663.56;2059027;28;20266;-65
2022/03/15 00:35:25;;;;;;;16.73;6.25;;;;;;;4.16;70.10;97662.75;2061182;28;20226;-64
2022/03/15 00:36:27;;;;;;;8.85;3.65;;;;;;;4.05;70.52;97658.72;2067627;28;20198;-64
2022/03/15 00:37:29;;;;;;;12.18;4.90;;;;;;;4.10;70.13;97667.25;2068576;28;20193;-64
2022/03/15 00:38:32;;;;;;;8.50;4.32;;;;;;;4.09;70.32;97665.53;2043881;28;20211;-64
2022/03/15 00:39:33;;;;;;;7.60;3.72;;;;;;;4.00;70.51;97658.84;2033276;28;20217;-65
2022/03/15 00:40:35;;;;;;;11.75;5.07;;;;;;;3.96;70.51;97654.66;2055652;28;20294;-64
2022/03/15 00:41:36;;;;;;;11.30;3.97;;;;;;;3.95;70.45;97664.13;2069600;28;20201;-65
2022/03/15 00:42:38;;;;;;;10.27;3.70;;;;;;;3.98;70.43;97652.88;2069717;28;20204;-64
2022/03/15 00:43:40;;;;;;;12.52;4.25;;;;;;;3.92;70.51;97655.59;2067025;28;20209;-65
2022/03/15 00:44:41;;;;;;;10.50;3.72;;;;;;;3.95;70.46;97655.53;2067466;28;20205;-65
2022/03/15 00:45:43;;;;;;;8.60;3.88;;;;;;;3.88;70.38;97656.56;2067954;28;20883;-65
2022/03/15 00:46:44;;;;;;;12.93;4.72;;;;;;;3.80;70.92;97655.91;2069219;28;20225;-65
2022/03/15 00:47:46;;;;;;;11.52;3.90;;;;;;;3.53;72.10;97653.97;2068059;28;20245;-64
2022/03/15 00:48:47;;;;;;;11.45;4.18;;;;;;;3.72;71.91;97661.28;2068508;28;20203;-64
2022/03/15 00:49:48;;;;;;;12.32;4.72;;;;;;;3.86;71.47;97653.16;2068338;28;20198;-64
2022/03/15 00:50:50;;;;;;;13.68;4.20;;;;;;;3.82;71.46;97646.34;2069154;28;20232;-65
2022/03/15 00:51:51;;;;;;;9.60;4.35;;;;;;;3.64;71.80;97650.25;2070781;28;20205;-65
2022/03/15 00:52:53;;;;;;;15.20;4.68;;;;;;;3.57;72.30;97657.34;2071323;28;20609;-64
2022/03/15 00:53:55;;;;;;;10.07;4.90;;;;;;;3.65;72.18;97652.81;2066636;28;20194;-64
2022/03/15 00:54:56;;;;;;;19.13;4.25;;;;;;;3.63;72.02;97656.34;2067187;28;20209;-64
2022/03/15 00:55:57;;;;;;;14.15;4.50;;;;;;;3.70;71.97;97645.75;2069127;28;20198;-64
2022/03/15 00:56:59;;;;;;;12.25;5.03;;;;;;;3.62;72.39;97645.09;2070847;28;20205;-64
2022/03/15 00:58:01;;;;;;;14.60;4.90;;;;;;;3.73;72.05;97639.66;2069344;28;20205;-64
2022/03/15 00:59:02;;;;;;;9.50;4.32;;;;;;;3.74;71.76;97638.75;2068055;28;20201;-64
2022/03/15 01:00:06;;;;;;;9.77;4.22;;;;;;;3.82;71.45;97623.03;2068335;28;20208;-64
2022/03/15 01:01:07;;;;;;;15.02;4.18;;;;;;;3.94;71.27;97631.34;2066925;28;20205;-64
2022/03/15 01:02:09;;;;;;;12.25;4.55;;;;;;;4.01;70.93;97626.84;2066916;28;20677;-65
2022/03/15 01:03:11;;;;;;;10.90;4.43;;;;;;;4.11;70.69;97628.28;2068297;28;20208;-65
2022/03/15 01:04:13;;;;;;;9.73;4.55;;;;;;;4.10;70.56;97630.94;2069415;28;20241;-65
2022/03/15 01:05:16;;;;;;;15.50;4.70;;;;;;;4.06;70.93;97627.59;2063897;28;20201;-64
2022/03/15 01:06:17;;;;;;;9.30;3.72;;;;;;;3.99;71.30;97620.84;2066917;28;20200;-65
2022/03/15 01:07:19;;;;;;;12.25;4.53;;;;;;;4.00;71.07;97625.16;2069131;28;20238;-64
2022/03/15 01:08:20;;;;;;;16.30;4.28;;;;;;;3.97;71.34;97625.22;2067884;28;20199;-65
2022/03/15 01:09:21;;;;;;;15.18;4.35;;;;;;;4.15;70.81;97629.06;2066409;28;20305;-64
2022/03/15 01:10:24;;;;;;;10.82;4.10;;;;;;;4.18;70.82;97633.34;2068944;28;20253;-64
2022/03/15 01:11:25;;;;;;;18.58;4.68;;;;;;;4.12;70.92;97627.41;2068593;28;20194;-64
2022/03/15 01:12:26;;;;;;;9.10;4.45;;;;;;;4.02;71.44;97623.38;2069540;28;20208;-65
2022/03/15 01:13:28;;;;;;;9.55;3.90;;;;;;;3.92;71.79;97621.88;2067131;28;20226;-64
2022/03/15 01:14:30;;;;;;;14.48;4.88;;;;;;;3.95;71.71;97627.84;2066835;28;20190;-64
2022/03/15 01:15:35;;;;;;;9.45;4.03;;;;;;;4.01;71.50;97624.25;2068476;28;20228;-65
2022/03/15 01:16:37;;;;;;;15.30;4.05;;;;;;;4.01;71.16;97620.81;2067374;28;20213;-64
2022/03/15 01:17:38;;;;;;;10.13;4.57;;;;;;;4.07;70.87;97621.50;2069032;28;20195;-64
2022/03/15 01:18:41;;;;;;;19.23;5.20;;;;;;;3.82;71.93;97625.63;2067535;28;20522;-64
2022/03/15 01:19:43;;;;;;;12.05;5.10;;;;;;;3.88;72.06;97621.16;2067432;28;20944;-65
2022/03/15 01:20:44;;;;;;;7.68;4.13;;;;;;;3.97;71.60;97615.69;2062236;28;20575;-64
2022/03/15 01:21:45;;;;;;;23.52;4.80;;;;;;;3.87;71.93;97605.63;2062326;28;20202;-64
2022/03/15 01:22:47;;;;;;;10.27;4.53;;;;;;;3.91;71.93;97615.03;2067894;28;20236;-65
2022/03/15 01:23:48;;;;;;;18.65;5.68;;;;;;;3.94;71.96;97617.53;2069789;28;20213;-64
2022/03/15 01:24:50;;;;;;;6.50;3.65;;;;;;;4.10;71.47;97613.66;2068112;28;20209;-64
2022/03/15 01:25:52;;;;;;;10.35;4.45;;;;;;;4.13;71.39;97621.31;2070028;28;20229;-64
2022/03/15 01:26:54;;;;;;;16.02;5.03;;;;;;;4.03;71.76;97621.63;2067817;28;20202;-64
2022/03/15 01:27:55;;;;;;;11.15;4.15;;;;;;;4.02;71.54;97619.91;2068263;28;20205;-64
2022/03/15 01:28:57;;;;;;;10.35;3.58;;;;;;;3.86;71.30;97622.06;2067892;28;20198;-65
2022/03/15 01:29:58;;;;;;;12.10;3.85;;;;;;;3.68;71.44;97610.41;2065742;28;20194;-64
2022/03/15 01:31:00;;;;;;;17.23;4.18;;;;;;;3.72;71.50;97614.63;2066656;28;20198;-64
2022/03/15 01:32:02;;;;;;;16.85;3.05;;;;;;;3.94;70.99;97610.63;2066732;28;20205;-65
2022/03/15 01:33:03;;;;;;;12.93;4.00;;;;;;;4.08;70.57;97609.41;2066845;28;20205;-64
2022/03/15 01:34:05;;;;;;;7.65;4.00;;;;;;;4.19;70.39;97604.75;2068449;28;20265;-64
2022/03/15 01:35:07;;;;;;;18.10;4.95;;;;;;;4.23;70.56;97605.53;2067777;28;20208;-64
2022/03/15 01:36:09;;;;;;;13.68;4.40;;;;;;;4.06;71.17;97608.59;2068545;28;20206;-64
2022/03/15 01:37:10;;;;;;;14.18;5.22;;;;;;;4.01;71.41;97600.91;2066255;28;20221;-64
2022/03/15 01:38:12;;;;;;;14.57;4.80;;;;;;;4.03;71.38;97603.47;2066889;28;20209;-64
2022/03/15 01:39:16;;;;;;;19.10;4.55;;;;;;;4.15;71.02;97597.97;2068276;28;20328;-64
2022/03/15 01:40:18;;;;;;;5.75;3.67;;;;;;;4.24;70.71;97604.66;2066285;28;20692;-64
2022/03/15 01:41:21;;;;;;;13.68;4.60;;;;;;;4.23;70.94;97595.16;2067194;28;20206;-65
2022/03/15 01:42:28;;;;;;;12.88;4.78;;;;;;;4.21;71.11;97597.78;2069253;28;20783;-64
2022/03/15 01:43:31;;;;;;;12.88;4.60;;;;;;;4.10;71.40;97590.31;2068054;28;20604;-65
2022/03/15 01:44:33;;;;;;;10.30;4.70;;;;;;;4.01;72.01;97595.72;2068079;28;20205;-64
2022/03/15 01:45:37;;;;;;;15.18;4.55;;;;;;;4.05;72.05;97591.31;2068559;28;20276;-64
2022/03/15 01:46:39;;;;;;;11.15;4.05;;;;;;;4.10;71.87;97585.13;2068917;28;20202;-64
2022/03/15 01:47:42;;;;;;;14.30;4.65;;;;;;;4.10;71.68;97590.31;2067958;28;20219;-65
2022/03/15 01:48:44;;;;;;;8.75;4.15;;;;;;;4.02;72.24;97591.41;2067580;28;20217;-64
2022/03/15 01:49:46;;;;;;;8.23;4.65;;;;;;;4.07;72.20;97582.59;2068158;28;20210;-65
2022/03/15 01:50:48;;;;;;;11.55;4.47;;;;;;;4.07;72.00;97586.94;2066798;28;20229;-64
2022/03/15 01:51:50;;;;;;;12.00;3.67;;;;;;;4.07;72.20;97582.59;2068031;28;20622;-64
2022/03/15 01:52:51;;;;;;;13.55;4.38;;;;;;;4.03;72.28;97587.94;2068074;28;20198;-64
2022/03/15 01:53:53;;;;;;;19.08;4.57;;;;;;;3.98;72.42;97588.06;2069011;28;20669;-65
2022/03/15 01:54:55;;;;;;;8.43;4.57;;;;;;;4.07;72.24;97592.97;2068948;28;20208;-65
2022/03/15 01:55:57;;;;;;;6.40;3.47;;;;;;;4.09;71.91;97578.22;2067136;28;20217;-65
2022/03/15 01:56:59;;;;;;;10.40;4.43;;;;;;;4.06;71.90;97585.25;2070210;28;20194;-64
2022/03/15 01:58:01;;;;;;;6.18;3.53;;;;;;;3.94;71.98;97589.03;2069793;28;20644;-64
2022/03/15 01:59:03;;;;;;;11.52;3.75;;;;;;;3.93;71.93;97589.91;2068896;28;20212;-65
2022/03/15 02:00:05;;;;;;;8.68;4.00;;;;;;;3.94;71.95;97589.88;2067232;28;20209;-64
2022/03/15 02:01:07;;;;;;;9.00;3.72;;;;;;;4.05;71.91;97589.56;2067429;28;20198;-64
2022/03/15 02:02:09;;;;;;;14.15;4.05;;;;;;;4.06;71.77;97593.88;2068474;28;20233;-65
2022/03/15 02:03:11;;;;;;;11.07;3.90;;;;;;;4.11;71.74;97594.59;2067745;28;20194;-64
2022/03/15 02:04:13;;;;;;;7.40;3.90;;;;;;;4.21;71.36;97591.75;2064415;28;20201;-65
2022/03/15 02:05:14;;;;;;;12.02;4.20;;;;;;;3.96;72.12;97595.88;2069828;28;20198;-65
2022/03/15 02:06:15;;;;;;;11.43;4.90;;;;;;;3.98;72.37;97598.44;2068751;28;20201;-64
2022/03/15 02:07:17;;;;;;;9.15;3.67;;;;;;;4.13;71.83;97587.63;2069085;28;20202;-64
2022/03/15 02:08:18;;;;;;;11.15;4.30;;;;;;;4.16;71.47;97584.97;2069943;28;20873;-64
2022/03/15 02:09:20;;;;;;;12.52;4.35;;;;;;;4.14;71.63;97584.16;2069371;28;20217;-64
2022/03/15 02:10:22;;;;;;;11.63;4.15;;;;;;;4.20;71.54;97590.06;2068755;28;20225;-64
2022/03/15 02:11:26;;;;;;;8.63;3.55;;;;;;;4.18;71.80;97590.09;2067896;28;20209;-65
2022/03/15 02:12:28;;;;;;;10.57;4.60;;;;;;;4.09;72.18;97588.59;2068928;28;20213;-64
2022/03/15 02:13:30;;;;;;;8.70;3.47;;;;;;;4.18;71.78;97589.25;2069776;28;20240;-64
2022/03/15 02:14:33;;;;;;;7.75;3.55;;;;;;;4.03;72.39;97591.38;2068996;28;20255;-65
2022/03/15 02:15:34;;;;;;;8.18;4.22;;;;;;;4.02;72.31;97592.28;2066616;28;20224;-65
2022/03/15 02:16:36;;;;;;;11.23;3.97;;;;;;;3.88;71.27;97595.22;2068329;28;20198;-65
2022/03/15 02:17:38;;;;;;;8.02;3.47;;;;;;;3.66;71.04;97594.91;2069836;28;20276;-64
2022/03/15 02:18:39;;;;;;;14.10;4.60;;;;;;;3.44;71.58;97589.41;2069290;28;20206;-64
2022/03/15 02:19:43;;;;;;;13.57;4.28;;;;;;;3.37;72.16;97587.84;2069460;28;20197;-65
2022/03/15 02:20:44;;;;;;;4.75;3.00;;;;;;;3.29;72.44;97582.88;2069761;28;20221;-66
2022/03/15 02:21:46;;;;;;;10.45;3.47;;;;;;;3.25;72.72;97586.41;2071470;28;20194;-64
2022/03/15 02:22:48;;;;;;;8.40;3.80;;;;;;;3.43;72.53;97573.91;2069636;28;20226;-64
2022/03/15 02:23:50;;;;;;;7.95;3.88;;;;;;;3.53;72.55;97578.00;2069050;28;20205;-64
2022/03/15 02:24:52;;;;;;;10.73;3.63;;;;;;;3.64;72.10;97585.47;2067692;28;20194;-64
2022/03/15 02:25:53;;;;;;;8.80;3.40;;;;;;;3.71;71.88;97581.84;2066637;28;20226;-64
2022/03/15 02:26:55;;;;;;;9.10;3.30;;;;;;;3.80;71.65;97575.56;2070088;28;20208;-63
2022/03/15 02:27:56;;;;;;;18.15;3.72;;;;;;;3.78;71.81;97580.78;2066985;28;20206;-64
2022/03/15 02:28:59;;;;;;;15.32;3.90;;;;;;;3.87;71.49;97575.38;2069431;28;20205;-64
2022/03/15 02:30:00;;;;;;;10.30;4.43;;;;;;;3.80;71.68;97580.75;2068727;28;20217;-64
2022/03/15 02:31:02;;;;;;;9.65;3.88;;;;;;;3.90;71.52;97580.50;2070275;28;20198;-63
2022/03/15 02:32:04;;;;;;;7.75;3.17;;;;;;;4.01;71.17;97580.19;2068716;28;20649;-64
2022/03/15 02:33:05;;;;;;;11.05;4.00;;;;;;;3.96;71.04;97572.53;2068875;28;20206;-65
2022/03/15 02:34:07;;;;;;;9.60;3.55;;;;;;;3.97;70.38;97575.97;2069471;28;20205;-64
2022/03/15 02:35:09;;;;;;;13.80;3.85;;;;;;;3.79;70.76;97568.69;2065464;28;20198;-64
2022/03/15 02:36:10;;;;;;;12.10;3.55;;;;;;;3.81;71.13;97579.88;2068269;28;20641;-64
2022/03/15 02:37:12;;;;;;;6.53;2.92;;;;;;;3.81;71.46;97583.31;2071796;28;20208;-64
2022/03/15 02:38:13;;;;;;;13.85;3.60;;;;;;;3.72;71.98;97575.75;2072047;28;20202;-64
2022/03/15 02:39:15;;;;;;;7.32;3.15;;;;;;;3.87;71.71;97584.91;2072625;28;20201;-64
2022/03/15 02:40:16;;;;;;;7.80;4.32;;;;;;;3.90;71.64;97587.38;2070010;28;20230;-64
2022/03/15 02:41:17;;;;;;;9.82;3.22;;;;;;;3.85;71.58;97576.31;2072052;28;20286;-63
2022/03/15 02:42:19;;;;;;;15.25;5.80;;;;;;;3.90;71.43;97561.47;2071477;28;20221;-64
2022/03/15 02:43:21;;;;;;;9.40;3.30;;;;;;;4.01;71.34;97574.16;2072481;28;20205;-65
2022/03/15 02:44:23;;;;;;;9.10;3.35;;;;;;;4.03;71.61;97564.59;2069573;28;20244;-64
2022/03/15 02:45:26;;;;;;;13.75;4.50;;;;;;;4.02;71.82;97563.75;2072229;28;20221;-64
2022/03/15 02:46:33;;;;;;;9.23;4.10;;;;;;;4.03;71.99;97562.84;2069442;28;20210;-64
2022/03/15 02:47:34;;;;;;;11.30;3.85;;;;;;;3.91;72.25;97561.44;2072053;28;20194;-64
2022/03/15 02:48:36;;;;;;;10.88;3.95;;;;;;;3.89;72.77;97563.22;2072167;28;20202;-65
2022/03/15 02:49:37;;;;;;;10.88;4.25;;;;;;;3.82;73.06;97566.00;2070927;28;20194;-64
2022/03/15 02:50:38;;;;;;;13.02;3.25;;;;;;;3.79;73.24;97569.53;2066747;28;20225;-64
2022/03/15 02:51:40;;;;;;;8.25;3.67;;;;;;;4.02;72.67;97568.06;2068151;28;20393;-64
2022/03/15 02:52:41;;;;;;;8.48;3.85;;;;;;;4.06;72.43;97567.97;2069694;28;20217;-64
2022/03/15 02:53:43;;;;;;;11.48;3.50;;;;;;;4.06;72.45;97567.97;2071211;28;20194;-65
2022/03/15 02:54:44;;;;;;;9.02;4.32;;;;;;;4.00;72.49;97565.53;2070309;28;20213;-64
2022/03/15 02:55:46;;;;;;;14.00;4.03;;;;;;;3.97;72.69;97568.19;2069549;28;20240;-65
2022/03/15 02:56:48;;;;;;;11.40;4.30;;;;;;;4.12;72.64;97561.75;2069864;28;20207;-65
2022/03/15 02:57:50;;;;;;;10.40;3.80;;;;;;;4.03;72.86;97568.03;2069069;28;20213;-64
2022/03/15 02:58:51;;;;;;;9.95;3.83;;;;;;;3.97;73.04;97565.59;2066188;28;20206;-63
2022/03/15 02:59:54;;;;;;;14.35;5.22;;;;;;;3.94;73.11;97563.13;2068345;28;20198;-65
2022/03/15 03:00:55;;;;;;;8.00;3.50;;;;;;;3.91;73.20;97565.78;2069391;28;20222;-64
2022/03/15 03:01:57;;;;;;;7.85;3.88;;;;;;;3.90;73.28;97564.94;2067797;28;20277;-64
2022/03/15 03:02:59;;;;;;;8.05;4.22;;;;;;;4.03;72.85;97552.47;2067924;28;20210;-64
2022/03/15 03:04:01;;;;;;;8.80;3.90;;;;;;;4.11;72.57;97560.03;2072663;28;20217;-64
2022/03/15 03:05:03;;;;;;;9.98;3.28;;;;;;;4.07;72.87;97554.09;2066851;28;20197;-64
2022/03/15 03:06:05;;;;;;;11.00;3.75;;;;;;;4.00;73.12;97557.75;2066153;28;20201;-64
2022/03/15 03:07:06;;;;;;;8.52;3.70;;;;;;;4.02;73.31;97558.56;2069145;28;20205;-64
2022/03/15 03:08:10;;;;;;;7.63;3.85;;;;;;;4.15;72.26;97557.31;2068578;28;20197;-65
2022/03/15 03:09:11;;;;;;;7.22;3.55;;;;;;;4.01;72.35;97558.59;2071005;28;20198;-64
2022/03/15 03:10:16;;;;;;;11.40;3.33;;;;;;;4.03;71.82;97547.28;2068587;28;20911;-64
2022/03/15 03:11:17;;;;;;;5.75;2.78;;;;;;;3.95;71.96;97551.84;2068608;28;20202;-64
2022/03/15 03:12:19;;;;;;;5.95;3.38;;;;;;;3.91;72.24;97552.81;2068943;28;20198;-64
2022/03/15 03:13:27;;;;;;;9.02;3.40;;;;;;;3.71;72.91;97551.59;2067338;28;20202;-64
2022/03/15 03:14:30;;;;;;;9.25;3.38;;;;;;;3.64;73.20;97547.47;2067481;28;20221;-64
2022/03/15 03:15:32;;;;;;;9.88;3.80;;;;;;;3.65;74.09;97558.69;2068164;28;20728;-64
2022/03/15 03:16:34;;;;;;;8.35;3.10;;;;;;;3.77;73.54;97563.56;2068072;28;20578;-64
2022/03/15 03:17:40;;;;;;;7.07;3.40;;;;;;;3.72;73.55;97565.41;2068261;28;20248;-64
2022/03/15 03:18:42;;;;;;;10.63;4.20;;;;;;;3.65;73.91;97554.38;2067885;28;20193;-64
2022/03/15 03:19:44;;;;;;;8.40;4.10;;;;;;;3.58;74.07;97554.56;2068083;28;20558;-64
2022/03/15 03:20:46;;;;;;;5.88;2.70;;;;;;;3.57;73.78;97558.91;2069654;28;20253;-64
2022/03/15 03:21:49;;;;;;;9.32;2.85;;;;;;;3.58;73.94;97558.00;2067791;28;20202;-64
2022/03/15 03:22:53;;;;;;;9.07;3.60;;;;;;;3.66;73.46;97558.63;2066894;28;20653;-64
2022/03/15 03:23:56;;;;;;;15.25;3.47;;;;;;;3.79;73.19;97554.00;2069384;28;20785;-64
2022/03/15 03:24:58;;;;;;;7.40;3.20;;;;;;;3.87;73.06;97556.38;2065924;28;20198;-64
2022/03/15 03:25:59;;;;;;;7.25;3.05;;;;;;;3.91;73.00;97547.63;2066371;28;20198;-64
2022/03/15 03:27:01;;;;;;;9.63;3.47;;;;;;;3.96;72.96;97545.78;2069490;28;20318;-64
2022/03/15 03:28:05;;;;;;;6.18;2.85;;;;;;;3.96;73.02;97546.63;2068524;28;20201;-64
2022/03/15 03:29:11;;;;;;;10.40;3.72;;;;;;;3.82;73.63;97550.47;2065922;28;20198;-64
2022/03/15 03:30:14;;;;;;;8.95;3.30;;;;;;;3.79;72.73;97550.56;2068010;28;20212;-64
2022/03/15 03:31:16;;;;;;;6.95;3.40;;;;;;;3.83;72.78;97539.22;2068410;28;20205;-64
2022/03/15 03:32:18;;;;;;;10.32;3.22;;;;;;;3.74;72.59;97542.91;2069400;28;20194;-64
2022/03/15 03:33:20;;;;;;;5.38;2.65;;;;;;;3.68;72.79;97540.47;2069528;28;20201;-64
2022/03/15 03:34:21;;;;;;;4.93;3.15;;;;;;;3.69;72.63;97543.03;2067873;28;20198;-64
2022/03/15 03:35:24;;;;;;;12.07;4.70;;;;;;;3.71;72.58;97537.81;2069713;28;20568;-64
2022/03/15 03:36:25;;;;;;;10.18;3.75;;;;;;;3.63;72.78;97543.19;2070567;28;20191;-64
2022/03/15 03:37:47;;;;;;;5.93;2.90;;;;;;;3.61;72.69;97539.78;2071633;28;20237;-64
2022/03/15 03:38:49;;;;;;;5.70;2.70;;;;;;;3.60;72.89;97535.47;2071368;28;20201;-64
2022/03/15 03:39:51;;;;;;;7.43;3.03;;;;;;;3.71;72.68;97530.88;2064262;28;20198;-64
2022/03/15 03:40:54;;;;;;;8.13;2.92;;;;;;;3.94;72.16;97537.19;2068532;28;20244;-64
2022/03/15 03:41:55;;;;;;;6.70;2.70;;;;;;;4.02;72.08;97532.66;2070584;28;20198;-64
2022/03/15 03:42:57;;;;;;;11.95;3.20;;;;;;;4.00;72.23;97531.84;2068590;28;20217;-64
2022/03/15 03:43:59;;;;;;;7.28;3.25;;;;;;;4.04;72.43;97527.41;2068937;28;20656;-64
2022/03/15 03:45:00;;;;;;;8.77;2.95;;;;;;;3.99;72.90;97530.13;2068570;28;20499;-63
2022/03/15 03:46:02;;;;;;;11.75;3.15;;;;;;;4.04;72.90;97519.63;2068572;28;20198;-64
2022/03/15 03:47:04;;;;;;;10.32;3.38;;;;;;;3.96;73.11;97525.88;2068709;28;20289;-64
2022/03/15 03:48:06;;;;;;;4.70;2.85;;;;;;;4.01;73.13;97515.38;2069448;28;20203;-64
2022/03/15 03:49:08;;;;;;;6.88;3.05;;;;;;;4.05;73.65;97517.00;2069930;28;20206;-64
2022/03/15 03:50:10;;;;;;;8.15;3.33;;;;;;;4.08;73.79;97514.31;2068945;28;20197;-64
2022/03/15 03:51:13;;;;;;;8.55;3.33;;;;;;;3.98;74.78;97533.63;2070037;28;20645;-64
2022/03/15 03:52:15;;;;;;;8.60;2.95;;;;;;;3.73;74.82;97533.44;2071535;28;20201;-64
2022/03/15 03:53:17;;;;;;;6.38;2.70;;;;;;;3.50;74.68;97537.47;2067052;28;20205;-64
2022/03/15 03:54:18;;;;;;;7.25;3.28;;;;;;;3.33;74.64;97535.31;2071046;28;20198;-64
2022/03/15 03:55:20;;;;;;;11.80;3.45;;;;;;;3.28;74.69;97531.97;2067857;28;20214;-63
2022/03/15 03:56:22;;;;;;;10.85;3.58;;;;;;;3.21;74.96;97529.56;2067679;28;20209;-64
2022/03/15 03:57:23;;;;;;;12.55;3.67;;;;;;;3.28;75.05;97524.22;2066983;28;20207;-64
2022/03/15 03:58:25;;;;;;;14.07;3.33;;;;;;;3.47;74.32;97519.44;2068758;28;20870;-64
2022/03/15 03:59:27;;;;;;;9.70;3.25;;;;;;;3.61;74.06;97516.47;2065408;28;20197;-64
2022/03/15 04:00:29;;;;;;;7.45;2.92;;;;;;;3.70;74.12;97526.56;2071808;28;20217;-64
2022/03/15 04:01:31;;;;;;;4.45;2.60;;;;;;;3.79;73.76;97522.06;2068232;28;20664;-64
2022/03/15 04:02:33;;;;;;;11.65;3.20;;;;;;;3.82;73.80;97527.97;2068438;28;20237;-64
2022/03/15 04:03:35;;;;;;;5.15;2.25;;;;;;;3.78;74.27;97528.97;2067929;28;20612;-64
2022/03/15 04:04:37;;;;;;;7.65;2.80;;;;;;;3.84;74.44;97531.41;2068664;28;20263;-64
2022/03/15 04:05:39;;;;;;;9.82;3.40;;;;;;;3.62;75.03;97530.28;2067094;28;20228;-64
2022/03/15 04:06:41;;;;;;;8.23;2.75;;;;;;;3.46;75.63;97529.81;2068201;28;20195;-64
2022/03/15 04:07:43;;;;;;;5.45;2.50;;;;;;;3.50;75.30;97526.25;2067176;28;20195;-64
2022/03/15 04:08:46;;;;;;;6.75;3.05;;;;;;;3.59;75.05;97523.44;2071104;28;20205;-64
2022/03/15 04:09:47;;;;;;;7.68;3.22;;;;;;;3.45;74.95;97526.38;2068364;28;20552;-64
2022/03/15 04:10:50;;;;;;;5.47;3.00;;;;;;;3.52;74.60;97529.66;2069105;28;20230;-64
2022/03/15 04:11:51;;;;;;;8.82;3.80;;;;;;;3.51;74.65;97534.00;2069107;28;20198;-64
2022/03/15 04:12:54;;;;;;;7.75;3.03;;;;;;;3.59;74.34;97527.75;2067971;28;20206;-64
2022/03/15 04:13:57;;;;;;;9.65;3.78;;;;;;;3.51;74.61;97528.81;2067931;28;20354;-64
2022/03/15 04:14:59;;;;;;;10.90;3.67;;;;;;;3.43;75.08;97524.72;2067776;28;20198;-63
2022/03/15 04:16:01;;;;;;;12.30;3.97;;;;;;;3.48;74.93;97517.69;2065896;28;20214;-64
2022/03/15 04:17:03;;;;;;;10.07;3.72;;;;;;;3.49;74.69;97509.00;2069499;28;20202;-64
2022/03/15 04:18:06;;;;;;;10.25;4.20;;;;;;;3.53;74.68;97515.84;2068995;28;20682;-64
2022/03/15 04:19:09;;;;;;;8.68;3.28;;;;;;;3.64;74.49;97513.78;2067051;28;20518;-64
2022/03/15 04:20:10;;;;;;;7.07;2.95;;;;;;;3.78;74.31;97509.97;2070032;28;20198;-64
2022/03/15 04:21:12;;;;;;;8.18;2.83;;;;;;;3.68;74.80;97517.16;2071427;28;20201;-64
2022/03/15 04:22:14;;;;;;;6.65;2.90;;;;;;;3.84;74.38;97510.69;2068862;28;20201;-64
2022/03/15 04:23:15;;;;;;;11.93;3.33;;;;;;;3.71;74.69;97517.94;2066228;28;20202;-64
2022/03/15 04:24:17;;;;;;;8.23;3.40;;;;;;;3.57;75.38;97522.63;2069088;28;20202;-64
2022/03/15 04:25:19;;;;;;;14.20;3.92;;;;;;;3.44;76.00;97526.41;2068614;28;20218;-64
2022/03/15 04:26:25;;;;;;;6.35;3.33;;;;;;;3.39;75.89;97515.31;2067078;28;20198;-64
2022/03/15 04:27:26;;;;;;;11.13;4.03;;;;;;;3.42;75.92;97518.69;2069083;28;20201;-64
2022/03/15 04:28:28;;;;;;;7.38;3.75;;;;;;;3.44;75.86;97516.06;2069641;28;20194;-64
2022/03/15 04:29:29;;;;;;;9.07;3.20;;;;;;;3.47;75.43;97510.78;2068749;28;20808;-64
2022/03/15 04:30:32;;;;;;;10.50;3.70;;;;;;;3.71;74.96;97522.25;2066137;28;20230;-64
2022/03/15 04:31:33;;;;;;;9.82;3.42;;;;;;;3.78;74.56;97515.16;2067097;28;20194;-64
2022/03/15 04:32:35;;;;;;;11.98;3.20;;;;;;;3.80;74.57;97519.41;2070853;28;20201;-64
2022/03/15 04:33:36;;;;;;;8.80;3.50;;;;;;;3.60;75.14;97525.13;2069032;28;20205;-64
2022/03/15 04:34:38;;;;;;;9.40;3.20;;;;;;;3.57;75.09;97522.63;2067852;28;20194;-64
2022/03/15 04:35:39;;;;;;;11.05;4.03;;;;;;;3.51;75.28;97515.03;2067973;28;20218;-64
2022/03/15 04:36:44;;;;;;;7.32;3.30;;;;;;;3.52;75.37;97514.97;2069347;28;20205;-64
2022/03/15 04:37:46;;;;;;;5.82;3.25;;;;;;;3.60;74.99;97499.22;2066432;28;20209;-64
2022/03/15 04:38:48;;;;;;;8.18;2.47;;;;;;;3.79;74.55;97514.28;2066753;28;20226;-64
2022/03/15 04:39:50;;;;;;;21.83;4.25;;;;;;;3.74;74.68;97509.22;2069390;28;20621;-64
2022/03/15 04:40:52;;;;;;;11.23;3.03;;;;;;;3.59;74.80;97504.44;2067581;28;20711;-64
2022/03/15 04:41:54;;;;;;;9.68;4.13;;;;;;;3.60;74.74;97512.16;2068255;28;20210;-64
2022/03/15 04:42:56;;;;;;;8.15;3.90;;;;;;;3.52;74.85;97508.94;2063865;28;20206;-64
2022/03/15 04:43:57;;;;;;;7.43;3.90;;;;;;;3.55;75.01;97509.72;2063724;28;20195;-64
2022/03/15 04:44:59;;;;;;;11.55;3.85;;;;;;;3.54;75.02;97505.41;2068189;28;20199;-64
2022/03/15 04:46:00;;;;;;;13.68;4.90;;;;;;;3.59;74.80;97507.91;2066579;28;20202;-64
2022/03/15 04:47:08;;;;;;;9.68;3.55;;;;;;;3.68;74.53;97505.03;2068045;28;20194;-64
2022/03/15 04:48:09;;;;;;;12.88;4.22;;;;;;;3.74;74.08;97494.53;2070254;28;20202;-64
2022/03/15 04:49:11;;;;;;;9.65;3.53;;;;;;;3.79;73.96;97506.50;2066039;28;20202;-64
2022/03/15 04:50:12;;;;;;;10.30;3.55;;;;;;;3.76;74.02;97505.72;2066993;28;20198;-65
2022/03/15 04:51:14;;;;;;;13.23;4.00;;;;;;;3.67;74.40;97494.75;2067910;28;20271;-64
2022/03/15 04:52:20;;;;;;;19.50;4.32;;;;;;;3.47;75.29;97497.84;2069458;28;20550;-64
2022/03/15 04:53:21;;;;;;;9.38;3.85;;;;;;;3.51;75.32;97507.25;2069010;28;20202;-64
2022/03/15 04:54:22;;;;;;;15.93;4.57;;;;;;;3.47;75.29;97501.31;2067192;28;20245;-64
2022/03/15 04:55:24;;;;;;;11.77;3.60;;;;;;;3.64;74.75;97506.00;2067246;28;20700;-64
2022/03/15 04:56:25;;;;;;;17.67;4.63;;;;;;;3.80;74.27;97508.19;2070174;28;20204;-64
2022/03/15 04:57:27;;;;;;;8.73;3.63;;;;;;;3.85;74.22;97503.75;2068793;28;20197;-64
2022/03/15 04:58:28;;;;;;;9.95;3.42;;;;;;;3.83;74.52;97498.59;2068752;28;20194;-64
2022/03/15 04:59:30;;;;;;;12.63;3.15;;;;;;;3.80;74.96;97503.00;2067934;28;20657;-64
2022/03/15 05:00:32;;;;;;;9.23;3.45;;;;;;;3.54;75.29;97510.59;2068236;28;20252;-64
2022/03/15 05:01:34;;;;;;;12.52;3.97;;;;;;;3.39;75.85;97512.72;2070604;28;20661;-64
2022/03/15 05:02:36;;;;;;;9.63;3.80;;;;;;;3.39;76.04;97512.72;2067552;28;20584;-64
2022/03/15 05:03:38;;;;;;;8.30;4.22;;;;;;;3.38;75.67;97505.88;2067332;28;20194;-64
2022/03/15 05:04:40;;;;;;;18.20;4.20;;;;;;;3.26;76.55;97501.84;2069300;28;20202;-64
2022/03/15 05:05:42;;;;;;;8.95;4.15;;;;;;;3.35;76.04;97497.28;2071030;28;20673;-64
2022/03/15 05:06:43;;;;;;;7.85;4.30;;;;;;;3.41;75.89;97496.28;2066928;28;20213;-64
2022/03/15 05:07:45;;;;;;;15.38;4.45;;;;;;;3.57;75.18;97494.13;2068599;28;20557;-64
2022/03/15 05:08:48;;;;;;;11.48;4.05;;;;;;;3.68;75.22;97489.50;2069194;28;20201;-64